Time;durP1;ratioP1;P1;durP2;ratioP2;P2;SDS_P1;SDS_P2;PMS_P1;PMS_P2;Temp;Humidity;BMP_temperature;BMP_pressure;BME280_temperature;BME280_humidity;BME280_pressure;Samples;Min_cycle;Max_cycle;Signal;HPM_P1;HPM_P2
2022/08/30 00:01:01;;;;;;;5.27;4.77;;;16.70;99.90;;;;;;5095922;28;20487;-72
2022/08/30 00:01:56;;;;;;;3.93;3.53;;;16.70;99.90;;;;;;5095899;28;20543;-72
2022/08/30 00:04:23;;;;;;;3.50;3.30;;;16.70;99.90;;;;;;5096107;28;20444;-72
2022/08/30 00:06:50;;;;;;;4.50;4.10;;;16.60;99.90;;;;;;5096260;28;20535;-72
2022/08/30 00:09:16;;;;;;;4.30;3.87;;;16.60;99.90;;;;;;5096114;28;20442;-72
2022/08/30 00:11:44;;;;;;;4.37;3.97;;;16.60;99.90;;;;;;5096274;28;20473;-72
2022/08/30 00:14:11;;;;;;;4.47;4.17;;;16.60;99.90;;;;;;5096150;28;20486;-72
2022/08/30 00:16:37;;;;;;;3.90;3.60;;;16.50;99.90;;;;;;5095980;28;20455;-72
2022/08/30 00:19:04;;;;;;;3.90;3.60;;;16.50;99.90;;;;;;5095842;28;20491;-72
2022/08/30 00:21:31;;;;;;;4.73;4.23;;;16.60;99.90;;;;;;5095623;28;20451;-72
2022/08/30 00:23:58;;;;;;;4.50;4.20;;;16.50;99.90;;;;;;5095464;28;20444;-72
2022/08/30 00:26:25;;;;;;;4.67;4.27;;;16.50;99.90;;;;;;5095826;28;20493;-72
2022/08/30 00:28:53;;;;;;;6.07;4.57;;;16.50;99.90;;;;;;5095372;28;20525;-72
2022/08/30 00:31:20;;;;;;;4.87;4.47;;;16.50;99.90;;;;;;5095735;28;20448;-72
2022/08/30 00:33:47;;;;;;;4.93;4.47;;;16.50;99.90;;;;;;5095638;28;20443;-72
2022/08/30 00:36:14;;;;;;;9.63;5.00;;;16.50;99.90;;;;;;5095619;28;20459;-72
2022/08/30 00:38:41;;;;;;;5.37;4.60;;;16.70;99.90;;;;;;5095368;28;20455;-73
2022/08/30 00:41:08;;;;;;;4.73;4.33;;;16.50;99.90;;;;;;5095463;28;20854;-72
2022/08/30 00:43:35;;;;;;;5.00;4.60;;;16.50;99.90;;;;;;5095375;28;20451;-72
2022/08/30 00:46:06;;;;;;;6.10;5.60;;;16.50;99.90;;;;;;5095318;28;20447;-72
2022/08/30 00:48:37;;;;;;;4.83;4.37;;;16.40;99.90;;;;;;5095002;28;20477;-72
2022/08/30 00:51:07;;;;;;;4.07;3.77;;;16.40;99.90;;;;;;5095274;28;20432;-72
2022/08/30 00:53:37;;;;;;;5.20;4.43;;;16.40;99.90;;;;;;5096125;28;20444;-72
2022/08/30 00:56:05;;;;;;;5.70;5.20;;;16.40;99.90;;;;;;5095180;28;20502;-72
2022/08/30 00:58:35;;;;;;;4.60;4.20;;;16.40;99.90;;;;;;5094502;28;20955;-72
2022/08/30 01:01:06;;;;;;;6.37;5.30;;;16.30;99.90;;;;;;5095185;28;20470;-72
2022/08/30 01:03:34;;;;;;;4.80;4.40;;;16.30;99.90;;;;;;5095343;28;20435;-71
2022/08/30 01:06:02;;;;;;;5.03;4.63;;;16.30;99.90;;;;;;5095110;28;20451;-71
2022/08/30 01:08:29;;;;;;;4.57;4.17;;;16.30;99.90;;;;;;5094904;28;20448;-72
2022/08/30 01:10:57;;;;;;;5.80;5.20;;;16.20;99.90;;;;;;5096983;28;20440;-72
2022/08/30 01:13:26;;;;;;;5.63;4.93;;;16.30;99.90;;;;;;5096411;28;20443;-72
2022/08/30 01:15:53;;;;;;;4.90;4.57;;;16.30;99.90;;;;;;5095627;28;20811;-72
2022/08/30 01:18:23;;;;;;;6.00;5.37;;;16.30;99.90;;;;;;5095154;28;20444;-72
2022/08/30 01:20:55;;;;;;;6.47;5.80;;;16.30;99.90;;;;;;5094566;28;20491;-72
2022/08/30 01:23:25;;;;;;;8.40;6.33;;;16.30;99.90;;;;;;5094817;28;20432;-72
2022/08/30 01:25:53;;;;;;;5.37;4.87;;;16.20;99.90;;;;;;5094636;28;20440;-72
2022/08/30 01:28:24;;;;;;;5.73;5.10;;;16.20;99.90;;;;;;5094715;28;20451;-71
2022/08/30 01:30:51;;;;;;;6.27;5.77;;;16.20;99.90;;;;;;5094131;28;20463;-72
2022/08/30 01:33:19;;;;;;;6.37;5.87;;;16.30;99.90;;;;;;5094201;28;20517;-71
2022/08/30 01:35:49;;;;;;;6.47;5.97;;;16.30;99.90;;;;;;5094444;28;20542;-71
2022/08/30 01:38:18;;;;;;;6.07;5.47;;;16.30;99.90;;;;;;5094530;28;20470;-71
2022/08/30 01:40:46;;;;;;;5.93;5.43;;;16.30;99.90;;;;;;5094135;28;20487;-71
2022/08/30 01:43:15;;;;;;;6.90;6.20;;;16.40;99.90;;;;;;5094633;28;20448;-71
2022/08/30 01:45:42;;;;;;;6.40;5.70;;;16.40;99.90;;;;;;5094220;28;20474;-71
2022/08/30 01:48:10;;;;;;;5.57;5.07;;;16.40;99.90;;;;;;5094185;28;20451;-71
2022/08/30 01:50:37;;;;;;;6.80;6.17;;;16.40;99.90;;;;;;5094119;28;20886;-71
2022/08/30 01:53:04;;;;;;;5.80;5.30;;;16.40;99.90;;;;;;5094030;28;20443;-71
2022/08/30 01:55:31;;;;;;;7.67;6.87;;;16.40;99.90;;;;;;5094115;28;20789;-71
2022/08/30 01:57:59;;;;;;;6.67;5.93;;;16.40;99.90;;;;;;5094372;28;20595;-71
2022/08/30 02:00:26;;;;;;;6.13;5.53;;;16.30;99.90;;;;;;5093721;28;20494;-71
2022/08/30 02:02:53;;;;;;;6.03;5.53;;;16.30;99.90;;;;;;5093930;28;20439;-72
2022/08/30 02:05:20;;;;;;;5.70;5.20;;;16.30;99.90;;;;;;5093921;28;20451;-71
2022/08/30 02:07:47;;;;;;;6.97;6.10;;;16.30;99.90;;;;;;5093925;28;20459;-71
2022/08/30 02:10:14;;;;;;;10.67;6.93;;;16.20;99.90;;;;;;5092942;28;20464;-72
2022/08/30 02:12:41;;;;;;;6.87;6.10;;;16.20;99.90;;;;;;5093766;28;20865;-73
2022/08/30 02:15:10;;;;;;;6.53;5.93;;;16.20;99.90;;;;;;5093836;28;20464;-73
2022/08/30 02:17:37;;;;;;;5.67;5.10;;;16.20;99.90;;;;;;5093893;28;20470;-72
2022/08/30 02:20:05;;;;;;;8.63;6.70;;;16.20;99.90;;;;;;5093474;28;20456;-72
2022/08/30 02:22:32;;;;;;;9.20;6.43;;;16.30;99.90;;;;;;5093718;28;20455;-72
2022/08/30 02:24:59;;;;;;;8.03;6.27;;;16.30;99.90;;;;;;5093700;28;20444;-72
2022/08/30 02:27:26;;;;;;;6.80;6.27;;;16.30;99.90;;;;;;5093869;28;20501;-73
2022/08/30 02:29:53;;;;;;;7.53;6.83;;;16.20;99.90;;;;;;5093598;28;20471;-73
2022/08/30 02:32:21;;;;;;;7.47;6.27;;;16.20;99.90;;;;;;5093788;28;20820;-72
2022/08/30 02:34:48;;;;;;;6.63;6.10;;;16.20;99.90;;;;;;5093834;28;20455;-72
2022/08/30 02:37:15;;;;;;;6.90;6.20;;;16.30;99.90;;;;;;5093606;28;20490;-71
2022/08/30 02:39:42;;;;;;;7.10;6.47;;;16.20;99.90;;;;;;5093571;28;20524;-73
2022/08/30 02:42:08;;;;;;;6.87;6.20;;;16.30;99.90;;;;;;5093866;28;20443;-72
2022/08/30 02:44:35;;;;;;;6.87;6.20;;;16.30;99.90;;;;;;5093658;28;20468;-72
2022/08/30 02:47:02;;;;;;;7.93;7.10;;;16.30;99.90;;;;;;5093609;28;20444;-72
2022/08/30 02:49:30;;;;;;;8.40;7.70;;;16.30;99.90;;;;;;5093495;28;20577;-72
2022/08/30 02:51:56;;;;;;;9.13;7.90;;;16.20;99.90;;;;;;5093567;28;21009;-72
2022/08/30 02:54:23;;;;;;;9.43;6.97;;;16.20;99.90;;;;;;5093662;28;20513;-72
2022/08/30 02:56:50;;;;;;;8.07;7.27;;;16.20;99.90;;;;;;5093250;28;20470;-72
2022/08/30 02:59:18;;;;;;;7.93;7.13;;;16.10;99.90;;;;;;5093079;28;20479;-72
2022/08/30 03:01:45;;;;;;;11.00;8.37;;;16.10;99.90;;;;;;5093479;28;20484;-72
2022/08/30 03:04:12;;;;;;;17.67;9.37;;;16.00;99.90;;;;;;5093211;28;20454;-73
2022/08/30 03:06:40;;;;;;;13.53;7.90;;;16.00;99.90;;;;;;5093567;28;20451;-72
2022/08/30 03:09:07;;;;;;;8.67;7.87;;;16.00;99.90;;;;;;5093283;28;20467;-72
2022/08/30 03:11:34;;;;;;;7.93;7.17;;;15.90;99.90;;;;;;5093705;28;20444;-73
2022/08/30 03:14:00;;;;;;;9.23;8.20;;;15.90;99.90;;;;;;5093837;28;20497;-73
2022/08/30 03:16:27;;;;;;;8.87;7.97;;;15.90;99.90;;;;;;5093349;28;20454;-73
2022/08/30 03:18:54;;;;;;;9.10;8.10;;;15.90;99.90;;;;;;5093568;28;20831;-73
2022/08/30 03:21:20;;;;;;;10.30;8.33;;;15.90;99.90;;;;;;5094247;28;20475;-73
2022/08/30 03:23:48;;;;;;;9.57;8.67;;;15.90;99.90;;;;;;5097475;28;20454;-73
2022/08/30 03:26:15;;;;;;;9.57;8.63;;;15.90;99.90;;;;;;5097046;28;20447;-73
2022/08/30 03:28:43;;;;;;;8.37;7.60;;;15.90;99.90;;;;;;5097118;28;20807;-72
2022/08/30 03:31:10;;;;;;;9.13;7.90;;;15.90;99.90;;;;;;5097099;28;20448;-72
2022/08/30 03:33:39;;;;;;;8.93;8.13;;;15.90;99.90;;;;;;5097228;28;20458;-72
2022/08/30 03:36:06;;;;;;;8.77;7.73;;;15.80;99.90;;;;;;5097047;28;20528;-72
2022/08/30 03:38:33;;;;;;;8.07;7.17;;;15.90;99.90;;;;;;5096835;28;20845;-72
2022/08/30 03:41:01;;;;;;;8.40;7.60;;;15.80;99.90;;;;;;5096979;28;20479;-73
2022/08/30 03:43:28;;;;;;;9.20;8.30;;;15.80;99.90;;;;;;5096865;28;20451;-72
2022/08/30 03:45:55;;;;;;;9.83;7.90;;;15.80;99.90;;;;;;5096541;28;20450;-71
2022/08/30 03:48:21;;;;;;;8.63;7.70;;;15.80;99.90;;;;;;5096750;28;20447;-71
2022/08/30 03:50:48;;;;;;;7.90;7.20;;;15.80;99.90;;;;;;5096779;28;20455;-73
2022/08/30 03:53:15;;;;;;;9.00;8.10;;;15.80;99.90;;;;;;5097214;28;20443;-72
2022/08/30 03:55:41;;;;;;;8.13;7.33;;;15.80;99.90;;;;;;5097667;28;20572;-72
2022/08/30 03:58:09;;;;;;;9.10;8.20;;;15.80;99.90;;;;;;5097306;28;20498;-72
2022/08/30 04:00:37;;;;;;;9.50;8.40;;;15.90;99.90;;;;;;5110513;22;20900;-74
2022/08/30 04:03:04;;;;;;;8.80;8.00;;;15.90;99.90;;;;;;5096415;28;20439;-74
2022/08/30 04:05:30;;;;;;;8.83;7.93;;;15.90;99.90;;;;;;5096557;28;20959;-72
2022/08/30 04:07:57;;;;;;;9.20;7.33;;;15.90;99.90;;;;;;5096245;28;20447;-73
2022/08/30 04:10:25;;;;;;;9.20;7.97;;;15.90;99.90;;;;;;5096524;28;20829;-73
2022/08/30 04:12:52;;;;;;;8.30;7.40;;;15.90;99.90;;;;;;5096001;28;20535;-73
2022/08/30 04:15:20;;;;;;;9.33;7.90;;;15.90;99.90;;;;;;5096141;28;20857;-73
2022/08/30 04:17:47;;;;;;;9.63;8.83;;;15.90;99.90;;;;;;5096144;28;20448;-74
2022/08/30 04:20:14;;;;;;;9.53;8.10;;;15.90;99.90;;;;;;5095726;28;20859;-73
2022/08/30 04:22:41;;;;;;;9.07;8.27;;;15.90;99.90;;;;;;5095827;28;20455;-73
2022/08/30 04:25:09;;;;;;;8.80;8.00;;;15.90;99.90;;;;;;5095952;28;20467;-74
2022/08/30 04:27:36;;;;;;;8.80;8.00;;;15.80;99.90;;;;;;5097263;28;20451;-73
2022/08/30 04:30:04;;;;;;;8.63;7.70;;;15.90;99.90;;;;;;5095785;28;20520;-74
2022/08/30 04:32:34;;;;;;;8.93;8.00;;;15.80;99.90;;;;;;5095403;28;20521;-73
2022/08/30 04:35:01;;;;;;;8.27;7.57;;;15.90;99.90;;;;;;5095826;28;20428;-73
2022/08/30 04:37:28;;;;;;;9.23;8.40;;;15.90;99.90;;;;;;5095620;28;20455;-73
2022/08/30 04:39:56;;;;;;;8.30;7.50;;;15.90;99.90;;;;;;5095506;28;20479;-73
2022/08/30 04:42:23;;;;;;;8.30;7.23;;;15.80;99.90;;;;;;5094848;28;20484;-72
2022/08/30 04:44:50;;;;;;;8.43;7.73;;;15.80;99.90;;;;;;5094989;28;20530;-73
2022/08/30 04:47:18;;;;;;;10.23;8.07;;;15.80;99.90;;;;;;5095294;28;20501;-73
2022/08/30 04:49:46;;;;;;;8.67;7.87;;;15.80;99.90;;;;;;5095096;28;20891;-73
2022/08/30 04:52:12;;;;;;;8.63;7.83;;;15.80;99.90;;;;;;5095234;28;20452;-73
2022/08/30 04:54:39;;;;;;;8.20;7.20;;;15.80;99.90;;;;;;5095059;28;20451;-73
2022/08/30 04:57:07;;;;;;;9.60;8.60;;;15.80;99.90;;;;;;5094891;28;20448;-74
2022/08/30 04:59:34;;;;;;;9.47;8.63;;;15.80;99.90;;;;;;5095181;28;20480;-74
2022/08/30 05:02:00;;;;;;;12.77;9.03;;;15.90;99.90;;;;;;5095119;28;20525;-74
2022/08/30 05:04:27;;;;;;;9.30;8.40;;;16.00;99.90;;;;;;5094886;28;20444;-73
2022/08/30 05:06:55;;;;;;;9.10;8.27;;;15.90;99.90;;;;;;5094850;28;20447;-73
2022/08/30 05:09:22;;;;;;;8.50;7.67;;;16.00;99.90;;;;;;5094917;28;20517;-73
2022/08/30 05:11:49;;;;;;;7.87;7.20;;;15.90;99.90;;;;;;5094837;28;20436;-74
2022/08/30 05:14:16;;;;;;;9.87;9.00;;;16.00;99.90;;;;;;5094470;28;20963;-74
2022/08/30 05:16:42;;;;;;;8.60;7.80;;;15.90;99.90;;;;;;5094704;28;20447;-73
2022/08/30 05:19:09;;;;;;;12.23;8.23;;;16.10;99.90;;;;;;5094618;28;20444;-73
2022/08/30 05:21:39;;;;;;;11.37;9.97;;;15.90;99.90;;;;;;5094572;28;20504;-74
2022/08/30 05:24:07;;;;;;;11.30;9.97;;;16.00;99.90;;;;;;5094554;28;20451;-73
2022/08/30 05:26:37;;;;;;;10.73;8.63;;;16.00;99.90;;;;;;5094356;28;20447;-73
2022/08/30 05:29:03;;;;;;;9.60;8.70;;;16.00;99.90;;;;;;5094285;28;20939;-73
2022/08/30 05:31:34;;;;;;;10.20;9.20;;;16.00;99.90;;;;;;5094680;28;20436;-73
2022/08/30 05:34:01;;;;;;;10.43;8.70;;;16.00;99.90;;;;;;5094439;28;20435;-73
2022/08/30 05:36:31;;;;;;;8.67;7.77;;;16.10;99.90;;;;;;5094917;28;20447;-74
2022/08/30 05:38:59;;;;;;;12.53;9.23;;;16.10;99.90;;;;;;5094134;28;20437;-73
2022/08/30 05:41:27;;;;;;;10.67;9.10;;;16.00;99.90;;;;;;5094147;28;20486;-73
2022/08/30 05:43:54;;;;;;;13.57;9.83;;;16.00;99.90;;;;;;5093598;28;20943;-73
2022/08/30 05:46:21;;;;;;;10.53;9.43;;;16.10;99.90;;;;;;5094076;28;20444;-73
2022/08/30 05:48:49;;;;;;;10.90;9.03;;;16.10;99.90;;;;;;5093949;28;20784;-73
2022/08/30 05:51:18;;;;;;;9.03;8.23;;;16.10;99.90;;;;;;5094231;28;20440;-73
2022/08/30 05:53:45;;;;;;;12.70;11.17;;;16.20;99.90;;;;;;5093890;28;20451;-75
2022/08/30 05:56:14;;;;;;;11.33;10.13;;;16.20;99.90;;;;;;5093954;28;20447;-73
2022/08/30 05:58:43;;;;;;;11.67;9.40;;;16.20;99.90;;;;;;5094870;28;20451;-73
2022/08/30 06:01:20;;;;;;;10.90;9.80;;;16.30;99.90;;;;;;5093287;28;20518;-73
2022/08/30 06:03:47;;;;;;;9.37;8.37;;;16.40;99.90;;;;;;5093883;28;20431;-72
2022/08/30 06:06:14;;;;;;;9.27;8.33;;;16.50;99.90;;;;;;5094497;28;20443;-74
2022/08/30 06:08:44;;;;;;;16.47;9.63;;;16.50;99.90;;;;;;5094807;28;20543;-73
2022/08/30 06:11:11;;;;;;;9.80;8.73;;;16.50;99.90;;;;;;5095106;28;20464;-73
2022/08/30 06:13:38;;;;;;;10.30;9.20;;;16.50;99.90;;;;;;5095877;28;20448;-73
2022/08/30 06:16:06;;;;;;;11.97;10.00;;;16.50;99.90;;;;;;5095168;28;20455;-74
2022/08/30 06:18:33;;;;;;;12.00;10.00;;;16.60;99.90;;;;;;5094871;28;20443;-74
2022/08/30 06:21:00;;;;;;;9.87;8.87;;;16.60;99.90;;;;;;5094646;28;20483;-73
2022/08/30 06:23:27;;;;;;;17.50;9.57;;;16.60;99.90;;;;;;5097678;28;20451;-73
2022/08/30 06:25:54;;;;;;;9.90;8.30;;;16.70;99.90;;;;;;5097906;28;20940;-73
2022/08/30 06:28:21;;;;;;;13.10;8.57;;;16.70;99.90;;;;;;5097095;28;20450;-72
2022/08/30 06:30:47;;;;;;;10.03;9.00;;;16.70;99.90;;;;;;5097152;28;20470;-73
2022/08/30 06:33:15;;;;;;;12.47;9.07;;;16.90;99.90;;;;;;5094797;28;20447;-73
2022/08/30 06:35:42;;;;;;;14.90;9.53;;;17.00;99.90;;;;;;5094968;28;20452;-74
2022/08/30 06:38:09;;;;;;;16.70;10.33;;;17.00;99.90;;;;;;5094240;28;20447;-74
2022/08/30 06:40:36;;;;;;;16.47;8.90;;;17.00;99.90;;;;;;5094085;28;20522;-73
2022/08/30 06:43:03;;;;;;;14.07;10.80;;;17.10;99.90;;;;;;5094290;28;20466;-73
2022/08/30 06:45:30;;;;;;;10.30;8.97;;;17.20;99.90;;;;;;5093950;28;20450;-73
2022/08/30 06:47:58;;;;;;;10.20;9.20;;;17.20;99.90;;;;;;5093764;28;20475;-74
2022/08/30 06:50:27;;;;;;;11.50;8.73;;;17.20;99.90;;;;;;5093988;28;20459;-74
2022/08/30 06:52:53;;;;;;;14.87;9.60;;;17.30;99.90;;;;;;5093695;28;20959;-73
2022/08/30 06:55:20;;;;;;;15.00;10.30;;;17.30;99.90;;;;;;5093406;28;20428;-73
2022/08/30 06:57:47;;;;;;;11.70;8.93;;;17.30;99.90;;;;;;5096688;28;20443;-73
2022/08/30 07:00:16;;;;;;;14.00;9.83;;;17.30;99.90;;;;;;5097232;28;20483;-73
2022/08/30 07:02:43;;;;;;;10.43;9.10;;;17.50;99.90;;;;;;5097551;28;20483;-73
2022/08/30 07:05:11;;;;;;;12.10;8.70;;;17.40;99.90;;;;;;5097623;28;20939;-73
2022/08/30 07:07:39;;;;;;;10.13;7.63;;;17.30;99.90;;;;;;5097554;28;20447;-73
2022/08/30 07:10:08;;;;;;;10.53;9.50;;;17.40;99.90;;;;;;5097030;28;20519;-73
2022/08/30 07:12:35;;;;;;;9.20;7.80;;;17.40;99.90;;;;;;5097439;28;20447;-73
2022/08/30 07:15:03;;;;;;;11.00;8.53;;;17.40;99.90;;;;;;5097317;28;20447;-73
2022/08/30 07:20:15;;;;;;;10.83;8.57;;;17.50;99.90;;;;;;5097152;28;20439;-73
2022/08/30 07:22:43;;;;;;;8.87;7.97;;;17.60;99.90;;;;;;5096971;28;20471;-73
2022/08/30 07:25:10;;;;;;;11.67;7.73;;;17.70;99.90;;;;;;5096421;28;20439;-73
2022/08/30 07:27:36;;;;;;;16.07;7.90;;;17.80;99.90;;;;;;5096811;28;20948;-74
2022/08/30 07:30:04;;;;;;;17.10;10.27;;;17.80;99.90;;;;;;5096784;28;20497;-73
2022/08/30 07:32:31;;;;;;;11.13;8.40;;;17.80;99.90;;;;;;5096843;28;20807;-73
2022/08/30 07:34:58;;;;;;;11.10;9.87;;;17.80;99.90;;;;;;5096675;28;20448;-74
2022/08/30 07:37:24;;;;;;;14.90;7.70;;;17.80;99.90;;;;;;5096646;28;20466;-73
2022/08/30 07:39:53;;;;;;;47.43;12.50;;;17.80;99.90;;;;;;5096741;28;20996;-73
2022/08/30 07:42:19;;;;;;;27.57;9.77;;;17.80;99.90;;;;;;5096372;28;20475;-73
2022/08/30 07:44:46;;;;;;;13.30;8.63;;;17.90;99.90;;;;;;5096462;28;20781;-73
2022/08/30 07:47:13;;;;;;;21.00;8.90;;;18.20;99.90;;;;;;5096405;28;20448;-74
2022/08/30 07:49:39;;;;;;;20.53;7.97;;;17.90;99.90;;;;;;5096282;28;20479;-73
2022/08/30 07:52:06;;;;;;;11.40;7.23;;;17.90;99.90;;;;;;5096276;28;20466;-73
2022/08/30 07:54:33;;;;;;;20.50;9.07;;;18.10;99.90;;;;;;5096198;28;20453;-73
2022/08/30 07:57:01;;;;;;;10.20;8.07;;;18.00;99.90;;;;;;5096237;28;20534;-73
2022/08/30 07:59:28;;;;;;;11.83;8.20;;;18.00;99.90;;;;;;5095831;28;20475;-73
2022/08/30 08:01:54;;;;;;;10.63;7.73;;;18.20;99.90;;;;;;5095708;28;20571;-74
2022/08/30 08:04:21;;;;;;;46.70;9.77;;;18.30;99.90;;;;;;5095983;28;20452;-73
2022/08/30 08:06:48;;;;;;;12.20;6.60;;;18.30;99.90;;;;;;5096400;28;20443;-74
2022/08/30 08:09:15;;;;;;;6.80;5.23;;;18.40;99.90;;;;;;5094708;28;20467;-73
2022/08/30 08:11:41;;;;;;;7.30;5.47;;;18.60;99.90;;;;;;5095754;28;20436;-74
2022/08/30 08:14:10;;;;;;;7.13;6.53;;;18.50;99.90;;;;;;5095854;28;20455;-73
2022/08/30 08:16:38;;;;;;;8.20;6.83;;;18.60;99.90;;;;;;5095861;28;20443;-73
2022/08/30 08:19:07;;;;;;;8.83;6.70;;;18.40;99.90;;;;;;5095613;28;20501;-73
2022/08/30 08:21:35;;;;;;;8.97;8.07;;;18.60;99.90;;;;;;5095318;28;20995;-73
2022/08/30 08:24:02;;;;;;;8.53;7.50;;;18.70;99.90;;;;;;5096379;28;20444;-73
2022/08/30 08:26:29;;;;;;;14.17;8.20;;;18.70;99.90;;;;;;5095708;28;20518;-73
2022/08/30 08:28:55;;;;;;;11.80;7.60;;;18.60;99.90;;;;;;5095501;28;20452;-73
2022/08/30 08:31:25;;;;;;;9.60;7.77;;;18.60;99.90;;;;;;5095743;28;20447;-73
2022/08/30 08:33:52;;;;;;;9.47;8.20;;;18.50;99.90;;;;;;5095438;28;20444;-73
2022/08/30 08:36:19;;;;;;;9.10;8.20;;;18.60;99.90;;;;;;5095503;28;20975;-73
2022/08/30 08:38:45;;;;;;;9.80;6.73;;;18.60;99.90;;;;;;5095438;28;20452;-72
2022/08/30 08:41:28;;;;;;;6.83;4.90;;;18.60;99.90;;;;;;5094836;28;20468;-72
2022/08/30 08:43:54;;;;;;;51.73;7.87;;;18.70;99.90;;;;;;5095441;28;20490;-73
2022/08/30 08:46:28;;;;;;;4.90;4.40;;;18.60;99.90;;;;;;5095304;28;20459;-73
2022/08/30 08:48:57;;;;;;;15.30;7.27;;;18.90;99.90;;;;;;5095282;28;20435;-72
2022/08/30 08:54:14;;;;;;;5.93;4.50;;;18.80;99.90;;;;;;5095173;28;21002;-73
2022/08/30 08:56:42;;;;;;;6.33;4.10;;;18.70;99.90;;;;;;5095750;28;20883;-74
2022/08/30 08:59:11;;;;;;;4.53;3.93;;;18.70;99.90;;;;;;5095136;28;20505;-74
2022/08/30 09:01:39;;;;;;;6.33;5.70;;;18.90;99.90;;;;;;5095845;28;20452;-73
2022/08/30 09:04:11;;;;;;;4.50;3.20;;;19.10;99.90;;;;;;5095266;28;20447;-73
2022/08/30 09:06:48;;;;;;;4.07;3.67;;;19.20;99.90;;;;;;5095221;28;20428;-73
2022/08/30 09:09:17;;;;;;;4.37;3.97;;;19.40;99.90;;;;;;5095647;28;20463;-74
2022/08/30 09:11:47;;;;;;;4.33;3.60;;;19.40;99.90;;;;;;5094674;28;20444;-73
2022/08/30 09:14:18;;;;;;;3.63;3.33;;;19.40;99.90;;;;;;5095309;28;20475;-73
2022/08/30 09:16:49;;;;;;;6.20;4.10;;;19.40;99.90;;;;;;5094864;28;20432;-73
2022/08/30 09:19:40;;;;;;;4.27;3.43;;;19.30;99.90;;;;;;5094607;28;20491;-74
2022/08/30 09:22:16;;;;;;;5.23;4.70;;;19.30;99.90;;;;;;5094653;28;20561;-74
2022/08/30 09:24:45;;;;;;;5.00;4.03;;;19.30;99.90;;;;;;5094872;28;20439;-72
2022/08/30 09:27:27;;;;;;;3.53;3.23;;;19.40;99.90;;;;;;5094556;28;20451;-74
2022/08/30 09:29:58;;;;;;;3.80;3.50;;;19.50;99.90;;;;;;5094658;28;20467;-73
2022/08/30 09:32:30;;;;;;;2.40;2.20;;;19.50;99.90;;;;;;5094272;28;20436;-74
2022/08/30 09:34:57;;;;;;;2.60;2.50;;;19.60;99.90;;;;;;5094185;28;20835;-73
2022/08/30 09:37:29;;;;;;;4.03;3.20;;;19.50;99.90;;;;;;5094123;28;20458;-73
2022/08/30 09:39:56;;;;;;;2.57;2.47;;;19.60;99.90;;;;;;5093765;28;20559;-73
2022/08/30 09:42:25;;;;;;;2.80;2.60;;;19.60;99.90;;;;;;5093933;28;20979;-73
2022/08/30 09:44:52;;;;;;;2.23;2.03;;;19.50;99.90;;;;;;5094124;28;20448;-73
2022/08/30 09:47:24;;;;;;;2.43;2.23;;;19.60;99.90;;;;;;5094057;28;20448;-74
2022/08/30 09:50:04;;;;;;;2.53;2.33;;;19.50;99.90;;;;;;5093910;28;21022;-74
2022/08/30 09:52:42;;;;;;;6.07;2.30;;;19.50;99.90;;;;;;5093639;28;20912;-74
2022/08/30 09:55:21;;;;;;;7.23;2.20;;;19.60;99.90;;;;;;5093809;28;20436;-74
2022/08/30 09:57:56;;;;;;;2.93;1.43;;;19.50;1.00;;;;;;5094685;28;20486;-73
2022/08/30 10:00:27;;;;;;;2.70;1.50;;;19.60;9.40;;;;;;5108330;22;20567;-72
2022/08/30 10:03:07;;;;;;;1.87;1.40;;;19.40;1.00;;;;;;5093802;28;20570;-72
2022/08/30 10:05:46;;;;;;;2.00;1.50;;;19.40;1.00;;;;;;5094049;28;20432;-72
2022/08/30 10:08:21;;;;;;;1.40;1.30;;;19.40;1.00;;;;;;5093765;28;20820;-72
2022/08/30 10:10:52;;;;;;;2.20;1.40;;;19.30;1.00;;;;;;5093743;28;20467;-72
2022/08/30 10:13:56;;;;;;;3.80;1.30;;;19.30;1.00;;;;;;5093318;28;20420;-72
2022/08/30 10:16:34;;;;;;;1.73;1.30;;;19.40;1.00;;;;;;5093424;28;20447;-72
2022/08/30 10:19:14;;;;;;;1.37;1.27;;;19.40;1.00;;;;;;5093934;28;20432;-72
2022/08/30 10:21:47;;;;;;;1.30;1.20;;;19.40;1.00;;;;;;5093559;28;20537;-72
2022/08/30 10:24:18;;;;;;;1.73;1.50;;;19.60;1.00;;;;;;5093685;28;20416;-72
2022/08/30 10:26:49;;;;;;;3.83;1.70;;;19.60;1.00;;;;;;5093469;28;20420;-72
2022/08/30 10:29:21;;;;;;;2.43;2.00;;;19.60;1.00;;;;;;5093641;28;20428;-72
2022/08/30 10:31:53;;;;;;;1.50;1.40;;;19.60;1.00;;;;;;5093204;28;20439;-72
2022/08/30 10:34:25;;;;;;;52.47;5.37;;;19.60;1.00;;;;;;5093689;28;20840;-72
2022/08/30 10:37:00;;;;;;;2.77;1.40;;;19.60;1.00;;;;;;5093206;28;20428;-72
2022/08/30 10:39:31;;;;;;;1.43;1.33;;;19.70;1.00;;;;;;5093456;28;20438;-72
2022/08/30 10:42:05;;;;;;;2.30;1.37;;;19.70;1.00;;;;;;5093510;28;20432;-72
2022/08/30 10:44:36;;;;;;;1.80;1.50;;;19.90;1.00;;;;;;5093428;28;20436;-72
2022/08/30 10:47:13;;;;;;;5.73;1.70;;;20.00;1.00;;;;;;5092977;28;20432;-72
2022/08/30 10:49:43;;;;;;;1.30;1.20;;;20.10;1.00;;;;;;5093468;28;20459;-72
2022/08/30 10:52:25;;;;;;;6.20;1.90;;;20.20;1.00;;;;;;5092946;28;20448;-72
2022/08/30 10:54:57;;;;;;;1.50;1.33;;;20.30;1.00;;;;;;5093047;28;20435;-72
2022/08/30 10:57:24;;;;;;;1.33;1.23;;;20.30;1.00;;;;;;5093317;28;20463;-72
2022/08/30 10:59:54;;;;;;;2.50;1.67;;;20.30;1.00;;;;;;5092592;28;20533;-71
2022/08/30 11:02:47;;;;;;;2.20;2.00;;;20.40;1.00;;;;;;5093190;28;20471;-72
2022/08/30 11:05:35;;;;;;;3.13;2.50;;;20.40;1.00;;;;;;5093211;28;20432;-72
2022/08/30 11:08:17;;;;;;;2.03;1.87;;;20.50;1.00;;;;;;5093049;28;20432;-72
2022/08/30 11:10:51;;;;;;;1.80;1.70;;;20.50;1.00;;;;;;5093215;28;20459;-72
2022/08/30 11:13:22;;;;;;;2.80;2.60;;;20.50;1.00;;;;;;5093474;28;20431;-72
2022/08/30 11:15:57;;;;;;;2.30;1.83;;;20.50;1.00;;;;;;5093013;28;20443;-73
2022/08/30 11:18:26;;;;;;;6.50;2.50;;;20.40;1.00;;;;;;5093453;28;20427;-72
2022/08/30 11:20:56;;;;;;;4.80;2.97;;;20.40;1.00;;;;;;5092767;28;20513;-72
2022/08/30 11:23:30;;;;;;;2.03;1.83;;;20.40;1.00;;;;;;5093183;28;20910;-72
2022/08/30 11:26:00;;;;;;;38.03;4.67;;;20.40;1.00;;;;;;5092310;28;20432;-72
2022/08/30 11:28:57;;;;;;;12.07;3.00;;;20.30;1.00;;;;;;5092729;28;20448;-72
2022/08/30 11:31:34;;;;;;;6.73;2.10;;;20.30;1.00;;;;;;5092514;28;20477;-72
2022/08/30 11:34:02;;;;;;;7.40;3.10;;;20.40;99.90;;;;;;5092887;28;20883;-72
2022/08/30 11:37:05;;;;;;;3.83;2.00;;;20.50;99.90;;;;;;5092926;28;20436;-72
2022/08/30 11:40:04;;;;;;;3.53;2.23;;;20.80;1.00;;;;;;5092807;28;20423;-72
2022/08/30 11:42:36;;;;;;;2.43;2.00;;;20.90;1.00;;;;;;5087055;28;20479;-72
2022/08/30 11:45:44;;;;;;;8.10;2.20;;;21.10;99.90;;;;;;5100228;28;20511;-73
2022/08/30 11:48:44;;;;;;;17.83;3.33;;;21.20;1.00;;;;;;5048228;28;20448;-72
2022/08/30 11:51:27;;;;;;;1.60;1.50;;;21.10;1.00;;;;;;5096975;28;20483;-72
2022/08/30 11:54:01;;;;;;;4.63;2.23;;;21.30;99.90;;;;;;5095944;28;20439;-73
2022/08/30 11:56:33;;;;;;;2.93;1.80;;;21.00;1.00;;;;;;5096503;28;20842;-72
2022/08/30 11:59:07;;;;;;;1.80;1.70;;;21.10;99.90;;;;;;5096946;28;20458;-73
2022/08/30 12:01:37;;;;;;;4.40;1.90;;;21.10;99.90;;;;;;5095828;28;20482;-72
2022/08/30 12:04:08;;;;;;;2.27;1.57;;;21.30;1.00;;;;;;5096167;28;20529;-72
2022/08/30 12:06:48;;;;;;;3.77;2.77;;;21.40;1.00;;;;;;5097713;28;20428;-73
2022/08/30 12:10:05;;;;;;;1.53;1.43;;;21.40;99.90;;;;;;5096450;28;20428;-73
2022/08/30 12:12:51;;;;;;;5.03;2.17;;;21.40;18.80;;;;;;5095955;28;20519;-72
2022/08/30 12:15:53;;;;;;;2.07;1.97;;;21.40;23.40;;;;;;5095873;28;20809;-72
2022/08/30 12:18:35;;;;;;;32.83;4.43;;;21.50;1.00;;;;;;5095999;28;20455;-72
2022/08/30 12:21:14;;;;;;;4.80;2.17;;;21.40;1.00;;;;;;5095905;28;20473;-72
2022/08/30 12:23:48;;;;;;;3.57;1.80;;;21.50;1.00;;;;;;5095625;28;20464;-72
2022/08/30 12:26:20;;;;;;;2.80;1.90;;;21.60;1.00;;;;;;5095561;28;20477;-71
2022/08/30 12:28:49;;;;;;;1.80;1.70;;;21.60;99.90;;;;;;5095566;28;20435;-71
2022/08/30 12:31:20;;;;;;;2.80;1.50;;;21.70;1.00;;;;;;5095632;28;20474;-72
2022/08/30 12:33:52;;;;;;;16.70;6.60;;;21.80;1.00;;;;;;5096547;28;20428;-72
2022/08/30 12:36:33;;;;;;;2.30;1.80;;;21.70;1.00;;;;;;5096075;28;20440;-72
2022/08/30 12:39:09;;;;;;;3.77;2.60;;;21.70;99.90;;;;;;5095750;28;20431;-71
2022/08/30 12:41:36;;;;;;;4.77;2.03;;;21.60;63.90;;;;;;5095404;28;20465;-71
2022/08/30 12:44:04;;;;;;;4.53;2.10;;;21.50;99.90;;;;;;5095458;28;20534;-72
2022/08/30 12:46:32;;;;;;;3.07;2.03;;;21.50;1.00;;;;;;5094902;28;20455;-72
2022/08/30 12:48:59;;;;;;;2.50;2.30;;;21.60;1.00;;;;;;5095153;28;20447;-72
2022/08/30 12:51:37;;;;;;;7.00;4.13;;;21.40;11.60;;;;;;5095767;28;20826;-73
2022/08/30 12:54:07;;;;;;;4.77;1.93;;;21.40;99.90;;;;;;5094465;28;20447;-73
2022/08/30 12:56:53;;;;;;;2.80;1.90;;;21.40;1.00;;;;;;5094796;28;20424;-72
2022/08/30 12:59:47;;;;;;;2.03;1.40;;;21.30;99.90;;;;;;5094973;28;20538;-71
2022/08/30 13:02:18;;;;;;;1.77;1.57;;;21.30;99.90;;;;;;5095596;28;20424;-72
2022/08/30 13:04:46;;;;;;;3.03;2.77;;;21.30;39.80;;;;;;5094849;28;20475;-72